sensor_id;sensor_type;location;lat;lon;timestamp;temperature;humidity
68109;SHT30;54893;49.864;19.084;2023-10-13T00:01:17;14.45;97.05
68109;SHT30;54893;49.864;19.084;2023-10-13T00:06:18;14.38;97.10
68109;SHT30;54893;49.864;19.084;2023-10-13T00:11:18;14.41;97.45
68109;SHT30;54893;49.864;19.084;2023-10-13T00:16:22;14.42;96.62
68109;SHT30;54893;49.864;19.084;2023-10-13T00:21:23;14.41;96.56
68109;SHT30;54893;49.864;19.084;2023-10-13T00:26:33;14.43;96.38
68109;SHT30;54893;49.864;19.084;2023-10-13T00:31:37;14.55;95.99
68109;SHT30;54893;49.864;19.084;2023-10-13T00:36:41;14.49;96.10
68109;SHT30;54893;49.864;19.084;2023-10-13T00:42:00;14.41;96.12
68109;SHT30;54893;49.864;19.084;2023-10-13T00:47:08;14.38;96.39
68109;SHT30;54893;49.864;19.084;2023-10-13T00:52:10;14.42;95.74
68109;SHT30;54893;49.864;19.084;2023-10-13T00:57:13;14.33;96.39
68109;SHT30;54893;49.864;19.084;2023-10-13T01:02:32;14.29;95.76
68109;SHT30;54893;49.864;19.084;2023-10-13T01:07:36;14.24;96.20
68109;SHT30;54893;49.864;19.084;2023-10-13T01:12:39;14.21;96.14
68109;SHT30;54893;49.864;19.084;2023-10-13T01:17:39;14.05;96.94
68109;SHT30;54893;49.864;19.084;2023-10-13T01:22:40;14.08;96.19
68109;SHT30;54893;49.864;19.084;2023-10-13T01:27:41;14.12;96.89
68109;SHT30;54893;49.864;19.084;2023-10-13T01:32:41;14.17;97.32
68109;SHT30;54893;49.864;19.084;2023-10-13T01:37:46;14.39;95.57
68109;SHT30;54893;49.864;19.084;2023-10-13T01:42:46;14.51;95.51
68109;SHT30;54893;49.864;19.084;2023-10-13T01:47:47;14.55;95.54
68109;SHT30;54893;49.864;19.084;2023-10-13T01:52:52;14.42;96.27
68109;SHT30;54893;49.864;19.084;2023-10-13T01:57:52;14.35;96.58
68109;SHT30;54893;49.864;19.084;2023-10-13T02:02:54;14.45;95.73
68109;SHT30;54893;49.864;19.084;2023-10-13T02:07:55;14.35;95.88
68109;SHT30;54893;49.864;19.084;2023-10-13T02:13:01;14.35;96.12
68109;SHT30;54893;49.864;19.084;2023-10-13T02:18:04;14.32;96.27
68109;SHT30;54893;49.864;19.084;2023-10-13T02:23:04;14.33;96.39
68109;SHT30;54893;49.864;19.084;2023-10-13T02:28:10;14.42;96.38
68109;SHT30;54893;49.864;19.084;2023-10-13T02:33:21;14.32;97.18
68109;SHT30;54893;49.864;19.084;2023-10-13T02:38:23;14.43;96.33
68109;SHT30;54893;49.864;19.084;2023-10-13T02:43:38;14.48;96.11
68109;SHT30;54893;49.864;19.084;2023-10-13T02:48:39;14.62;96.05
68109;SHT30;54893;49.864;19.084;2023-10-13T02:53:46;14.46;96.53
68109;SHT30;54893;49.864;19.084;2023-10-13T02:58:51;14.39;96.96
68109;SHT30;54893;49.864;19.084;2023-10-13T03:03:56;14.33;97.32
68109;SHT30;54893;49.864;19.084;2023-10-13T03:09:09;14.38;97.42
68109;SHT30;54893;49.864;19.084;2023-10-13T03:14:22;14.41;97.87
68109;SHT30;54893;49.864;19.084;2023-10-13T03:19:26;14.33;98.18
68109;SHT30;54893;49.864;19.084;2023-10-13T03:24:32;14.36;98.59
68109;SHT30;54893;49.864;19.084;2023-10-13T03:29:37;14.33;99.57
68109;SHT30;54893;49.864;19.084;2023-10-13T03:34:43;14.33;99.09
68109;SHT30;54893;49.864;19.084;2023-10-13T03:39:52;14.32;99.43
68109;SHT30;54893;49.864;19.084;2023-10-13T03:44:53;14.22;99.70
68109;SHT30;54893;49.864;19.084;2023-10-13T03:49:55;14.26;99.99
68109;SHT30;54893;49.864;19.084;2023-10-13T03:55:14;14.26;99.48
68109;SHT30;54893;49.864;19.084;2023-10-13T04:00:17;14.46;98.46
68109;SHT30;54893;49.864;19.084;2023-10-13T04:05:25;14.48;98.67
68109;SHT30;54893;49.864;19.084;2023-10-13T04:10:37;14.45;99.05
68109;SHT30;54893;49.864;19.084;2023-10-13T04:15:52;14.41;98.58
68109;SHT30;54893;49.864;19.084;2023-10-13T04:21:14;14.48;98.38
68109;SHT30;54893;49.864;19.084;2023-10-13T04:26:33;14.48;98.73
68109;SHT30;54893;49.864;19.084;2023-10-13T04:31:42;14.65;98.43
68109;SHT30;54893;49.864;19.084;2023-10-13T04:36:59;14.73;97.94
68109;SHT30;54893;49.864;19.084;2023-10-13T04:42:19;14.76;97.95
68109;SHT30;54893;49.864;19.084;2023-10-13T04:47:39;14.77;98.25
68109;SHT30;54893;49.864;19.084;2023-10-13T04:52:48;14.83;98.12
68109;SHT30;54893;49.864;19.084;2023-10-13T04:58:01;14.83;98.24
68109;SHT30;54893;49.864;19.084;2023-10-13T05:03:14;14.86;98.10
68109;SHT30;54893;49.864;19.084;2023-10-13T05:08:37;14.96;97.56
68109;SHT30;54893;49.864;19.084;2023-10-13T05:13:56;15.04;97.34
68109;SHT30;54893;49.864;19.084;2023-10-13T05:19:15;15.03;97.33
68109;SHT30;54893;49.864;19.084;2023-10-13T05:24:34;14.97;97.73
68109;SHT30;54893;49.864;19.084;2023-10-13T05:29:53;15.02;97.69
68109;SHT30;54893;49.864;19.084;2023-10-13T05:35:13;15.07;97.15
68109;SHT30;54893;49.864;19.084;2023-10-13T05:40:33;15.22;96.64
68109;SHT30;54893;49.864;19.084;2023-10-13T05:45:52;15.31;96.30
68109;SHT30;54893;49.864;19.084;2023-10-13T05:51:11;15.40;96.03
68109;SHT30;54893;49.864;19.084;2023-10-13T05:56:30;15.40;95.97
68109;SHT30;54893;49.864;19.084;2023-10-13T06:01:49;15.44;95.68
68109;SHT30;54893;49.864;19.084;2023-10-13T06:07:08;15.46;95.55
68109;SHT30;54893;49.864;19.084;2023-10-13T06:12:27;15.50;95.47
68109;SHT30;54893;49.864;19.084;2023-10-13T06:17:46;15.58;95.38
68109;SHT30;54893;49.864;19.084;2023-10-13T06:23:04;15.60;95.33
68109;SHT30;54893;49.864;19.084;2023-10-13T06:28:23;15.63;95.33
68109;SHT30;54893;49.864;19.084;2023-10-13T06:33:42;15.57;95.49
68109;SHT30;54893;49.864;19.084;2023-10-13T06:38:45;15.60;95.57
68109;SHT30;54893;49.864;19.084;2023-10-13T06:43:55;15.71;95.30
68109;SHT30;54893;49.864;19.084;2023-10-13T06:49:01;15.81;94.81
68109;SHT30;54893;49.864;19.084;2023-10-13T06:54:03;15.97;94.57
68109;SHT30;54893;49.864;19.084;2023-10-13T06:59:03;16.35;93.64
68109;SHT30;54893;49.864;19.084;2023-10-13T07:04:08;16.76;92.94
68109;SHT30;54893;49.864;19.084;2023-10-13T07:09:16;17.49;91.61
68109;SHT30;54893;49.864;19.084;2023-10-13T07:14:35;17.97;90.76
68109;SHT30;54893;49.864;19.084;2023-10-13T07:19:37;17.94;90.66
68109;SHT30;54893;49.864;19.084;2023-10-13T07:24:53;17.83;90.89
68109;SHT30;54893;49.864;19.084;2023-10-13T07:29:55;18.12;90.14
68109;SHT30;54893;49.864;19.084;2023-10-13T07:35:15;18.52;89.83
68109;SHT30;54893;49.864;19.084;2023-10-13T07:40:18;19.30;87.33
68109;SHT30;54893;49.864;19.084;2023-10-13T07:45:27;19.88;85.93
68109;SHT30;54893;49.864;19.084;2023-10-13T07:50:36;20.10;84.11
68109;SHT30;54893;49.864;19.084;2023-10-13T07:55:36;20.22;84.13
68109;SHT30;54893;49.864;19.084;2023-10-13T08:00:39;20.51;83.74
68109;SHT30;54893;49.864;19.084;2023-10-13T08:05:53;20.96;82.48
68109;SHT30;54893;49.864;19.084;2023-10-13T08:11:16;21.09;81.03
68109;SHT30;54893;49.864;19.084;2023-10-13T08:16:31;21.70;80.14
68109;SHT30;54893;49.864;19.084;2023-10-13T08:21:50;21.39;78.63
68109;SHT30;54893;49.864;19.084;2023-10-13T08:26:57;20.80;80.82
68109;SHT30;54893;49.864;19.084;2023-10-13T08:32:18;20.56;81.97
68109;SHT30;54893;49.864;19.084;2023-10-13T08:37:28;20.21;83.64
68109;SHT30;54893;49.864;19.084;2023-10-13T08:42:37;20.22;84.43
68109;SHT30;54893;49.864;19.084;2023-10-13T08:47:40;20.36;82.42
68109;SHT30;54893;49.864;19.084;2023-10-13T08:52:48;20.31;81.99
68109;SHT30;54893;49.864;19.084;2023-10-13T08:57:49;20.10;81.02
68109;SHT30;54893;49.864;19.084;2023-10-13T09:02:55;20.56;80.84
68109;SHT30;54893;49.864;19.084;2023-10-13T09:08:28;21.24;79.51
68109;SHT30;54893;49.864;19.084;2023-10-13T09:13:37;21.53;77.85
68109;SHT30;54893;49.864;19.084;2023-10-13T09:18:46;21.83;77.02
68109;SHT30;54893;49.864;19.084;2023-10-13T09:23:47;22.17;75.92
68109;SHT30;54893;49.864;19.084;2023-10-13T09:28:49;22.05;74.39
68109;SHT30;54893;49.864;19.084;2023-10-13T09:33:53;21.93;75.15
68109;SHT30;54893;49.864;19.084;2023-10-13T09:38:58;21.84;75.15
68109;SHT30;54893;49.864;19.084;2023-10-13T09:44:30;21.56;74.58
68109;SHT30;54893;49.864;19.084;2023-10-13T09:49:32;21.91;74.26
68109;SHT30;54893;49.864;19.084;2023-10-13T09:55:26;21.83;75.74
68109;SHT30;54893;49.864;19.084;2023-10-13T10:00:31;21.63;75.57
68109;SHT30;54893;49.864;19.084;2023-10-13T10:05:35;22.42;74.17
68109;SHT30;54893;49.864;19.084;2023-10-13T10:10:56;22.02;74.76
68109;SHT30;54893;49.864;19.084;2023-10-13T10:16:08;21.80;76.17
68109;SHT30;54893;49.864;19.084;2023-10-13T10:21:14;21.46;76.21
68109;SHT30;54893;49.864;19.084;2023-10-13T10:26:16;21.58;76.17
68109;SHT30;54893;49.864;19.084;2023-10-13T10:31:31;21.36;76.65
68109;SHT30;54893;49.864;19.084;2023-10-13T10:36:35;21.43;76.70
68109;SHT30;54893;49.864;19.084;2023-10-13T10:41:36;21.33;76.87
68109;SHT30;54893;49.864;19.084;2023-10-13T10:46:43;21.40;77.64
68109;SHT30;54893;49.864;19.084;2023-10-13T10:51:52;21.32;77.52
68109;SHT30;54893;49.864;19.084;2023-10-13T10:56:59;21.42;76.81
68109;SHT30;54893;49.864;19.084;2023-10-13T11:02:11;21.49;76.53
68109;SHT30;54893;49.864;19.084;2023-10-13T11:07:23;21.54;76.81
68109;SHT30;54893;49.864;19.084;2023-10-13T11:12:24;21.64;77.12
68109;SHT30;54893;49.864;19.084;2023-10-13T11:17:25;21.90;77.32
68109;SHT30;54893;49.864;19.084;2023-10-13T11:22:49;21.81;77.10
68109;SHT30;54893;49.864;19.084;2023-10-13T11:27:50;22.01;77.21
68109;SHT30;54893;49.864;19.084;2023-10-13T11:33:17;22.30;76.62
68109;SHT30;54893;49.864;19.084;2023-10-13T11:38:33;22.47;76.17
68109;SHT30;54893;49.864;19.084;2023-10-13T11:43:54;22.44;76.34
68109;SHT30;54893;49.864;19.084;2023-10-13T11:49:14;22.76;75.73
68109;SHT30;54893;49.864;19.084;2023-10-13T11:54:18;22.78;75.12
68109;SHT30;54893;49.864;19.084;2023-10-13T11:59:18;22.66;75.61
68109;SHT30;54893;49.864;19.084;2023-10-13T12:04:20;22.51;75.38
68109;SHT30;54893;49.864;19.084;2023-10-13T12:09:41;22.88;74.89
68109;SHT30;54893;49.864;19.084;2023-10-13T12:14:52;22.92;73.79
68109;SHT30;54893;49.864;19.084;2023-10-13T12:19:55;23.10;74.39
68109;SHT30;54893;49.864;19.084;2023-10-13T12:24:57;22.85;74.53
68109;SHT30;54893;49.864;19.084;2023-10-13T12:29:57;22.95;74.27
68109;SHT30;54893;49.864;19.084;2023-10-13T12:35:07;22.92;74.55
68109;SHT30;54893;49.864;19.084;2023-10-13T12:40:09;23.00;73.75
68109;SHT30;54893;49.864;19.084;2023-10-13T12:45:28;22.86;73.44
68109;SHT30;54893;49.864;19.084;2023-10-13T12:50:47;22.88;73.71
68109;SHT30;54893;49.864;19.084;2023-10-13T12:56:07;22.73;74.08
68109;SHT30;54893;49.864;19.084;2023-10-13T13:01:11;22.72;73.54
68109;SHT30;54893;49.864;19.084;2023-10-13T13:06:21;22.69;74.18
68109;SHT30;54893;49.864;19.084;2023-10-13T13:11:29;22.71;74.23
68109;SHT30;54893;49.864;19.084;2023-10-13T13:16:30;22.78;74.60
68109;SHT30;54893;49.864;19.084;2023-10-13T13:21:30;22.86;74.55
68109;SHT30;54893;49.864;19.084;2023-10-13T13:26:30;22.99;74.19
68109;SHT30;54893;49.864;19.084;2023-10-13T13:31:31;23.12;73.66
68109;SHT30;54893;49.864;19.084;2023-10-13T13:36:31;23.18;73.78
68109;SHT30;54893;49.864;19.084;2023-10-13T13:41:32;23.30;73.93
68109;SHT30;54893;49.864;19.084;2023-10-13T13:46:33;22.96;73.74
68109;SHT30;54893;49.864;19.084;2023-10-13T13:51:41;22.68;72.98
68109;SHT30;54893;49.864;19.084;2023-10-13T13:56:41;22.49;73.77
68109;SHT30;54893;49.864;19.084;2023-10-13T14:01:42;22.35;74.48
68109;SHT30;54893;49.864;19.084;2023-10-13T14:06:44;22.02;74.81
68109;SHT30;54893;49.864;19.084;2023-10-13T14:11:45;21.73;75.84
68109;SHT30;54893;49.864;19.084;2023-10-13T14:17:12;21.74;76.15
68109;SHT30;54893;49.864;19.084;2023-10-13T14:22:12;21.96;76.08
68109;SHT30;54893;49.864;19.084;2023-10-13T14:27:12;21.97;76.55
68109;SHT30;54893;49.864;19.084;2023-10-13T14:32:17;21.90;76.70
68109;SHT30;54893;49.864;19.084;2023-10-13T14:37:18;21.77;77.04
68109;SHT30;54893;49.864;19.084;2023-10-13T14:42:27;21.71;77.05
68109;SHT30;54893;49.864;19.084;2023-10-13T14:47:27;21.57;77.43
68109;SHT30;54893;49.864;19.084;2023-10-13T14:52:27;21.39;77.90
68109;SHT30;54893;49.864;19.084;2023-10-13T14:57:32;21.24;78.77
68109;SHT30;54893;49.864;19.084;2023-10-13T15:02:32;21.07;79.57
68109;SHT30;54893;49.864;19.084;2023-10-13T15:07:33;20.89;80.06
68109;SHT30;54893;49.864;19.084;2023-10-13T15:12:43;20.52;80.84
68109;SHT30;54893;49.864;19.084;2023-10-13T15:17:45;20.35;81.40
68109;SHT30;54893;49.864;19.084;2023-10-13T15:22:46;20.28;81.51
68109;SHT30;54893;49.864;19.084;2023-10-13T15:27:48;19.88;82.32
68109;SHT30;54893;49.864;19.084;2023-10-13T15:32:57;19.43;83.82
68109;SHT30;54893;49.864;19.084;2023-10-13T15:37:58;19.27;83.72
68109;SHT30;54893;49.864;19.084;2023-10-13T15:42:58;19.06;84.26
68109;SHT30;54893;49.864;19.084;2023-10-13T15:48:00;18.95;85.40
68109;SHT30;54893;49.864;19.084;2023-10-13T15:53:02;18.79;85.63
68109;SHT30;54893;49.864;19.084;2023-10-13T15:58:03;18.59;85.36
68109;SHT30;54893;49.864;19.084;2023-10-13T16:03:07;18.49;86.07
68109;SHT30;54893;49.864;19.084;2023-10-13T16:08:10;18.42;86.54
68109;SHT30;54893;49.864;19.084;2023-10-13T16:13:11;18.34;87.23
68109;SHT30;54893;49.864;19.084;2023-10-13T16:18:20;18.28;85.82
68109;SHT30;54893;49.864;19.084;2023-10-13T16:23:22;18.25;87.01
68109;SHT30;54893;49.864;19.084;2023-10-13T16:28:23;18.18;86.90
68109;SHT30;54893;49.864;19.084;2023-10-13T16:33:24;18.21;86.48
68109;SHT30;54893;49.864;19.084;2023-10-13T16:38:24;18.09;86.22
68109;SHT30;54893;49.864;19.084;2023-10-13T16:43:25;18.15;86.48
68109;SHT30;54893;49.864;19.084;2023-10-13T16:48:25;18.11;85.94
68109;SHT30;54893;49.864;19.084;2023-10-13T16:53:27;18.04;85.76
68109;SHT30;54893;49.864;19.084;2023-10-13T16:58:28;18.14;85.26
68109;SHT30;54893;49.864;19.084;2023-10-13T17:03:30;18.14;85.15
68109;SHT30;54893;49.864;19.084;2023-10-13T17:08:31;18.21;84.74
68109;SHT30;54893;49.864;19.084;2023-10-13T17:13:31;18.08;84.94
68109;SHT30;54893;49.864;19.084;2023-10-13T17:18:33;18.18;84.72
68109;SHT30;54893;49.864;19.084;2023-10-13T17:23:33;18.08;84.71
68109;SHT30;54893;49.864;19.084;2023-10-13T17:28:34;18.24;84.26
68109;SHT30;54893;49.864;19.084;2023-10-13T17:33:37;18.18;84.17
68109;SHT30;54893;49.864;19.084;2023-10-13T17:38:39;18.35;83.63
68109;SHT30;54893;49.864;19.084;2023-10-13T17:43:40;18.42;83.43
68109;SHT30;54893;49.864;19.084;2023-10-13T17:48:41;18.38;83.28
68109;SHT30;54893;49.864;19.084;2023-10-13T17:53:44;18.42;83.02
68109;SHT30;54893;49.864;19.084;2023-10-13T17:58:46;18.71;82.10
68109;SHT30;54893;49.864;19.084;2023-10-13T18:03:50;18.79;81.80
68109;SHT30;54893;49.864;19.084;2023-10-13T18:08:52;18.82;81.56
68109;SHT30;54893;49.864;19.084;2023-10-13T18:13:54;18.92;80.83
68109;SHT30;54893;49.864;19.084;2023-10-13T18:18:55;18.86;81.15
68109;SHT30;54893;49.864;19.084;2023-10-13T18:23:55;18.83;80.96
68109;SHT30;54893;49.864;19.084;2023-10-13T18:28:56;18.75;80.85
68109;SHT30;54893;49.864;19.084;2023-10-13T18:33:58;18.82;80.82
68109;SHT30;54893;49.864;19.084;2023-10-13T18:38:58;19.06;79.59
68109;SHT30;54893;49.864;19.084;2023-10-13T18:43:59;19.03;79.59
68109;SHT30;54893;49.864;19.084;2023-10-13T18:49:00;19.26;78.85
68109;SHT30;54893;49.864;19.084;2023-10-13T18:54:02;19.26;78.88
68109;SHT30;54893;49.864;19.084;2023-10-13T18:59:02;19.43;77.73
68109;SHT30;54893;49.864;19.084;2023-10-13T19:04:04;19.47;77.92
68109;SHT30;54893;49.864;19.084;2023-10-13T19:09:05;19.46;77.67
68109;SHT30;54893;49.864;19.084;2023-10-13T19:14:06;19.47;77.84
68109;SHT30;54893;49.864;19.084;2023-10-13T19:19:10;19.50;77.61
68109;SHT30;54893;49.864;19.084;2023-10-13T19:24:10;19.47;77.61
68109;SHT30;54893;49.864;19.084;2023-10-13T19:29:11;19.59;76.85
68109;SHT30;54893;49.864;19.084;2023-10-13T19:34:11;19.41;77.54
68109;SHT30;54893;49.864;19.084;2023-10-13T19:39:17;19.47;77.37
68109;SHT30;54893;49.864;19.084;2023-10-13T19:44:20;19.57;76.94
68109;SHT30;54893;49.864;19.084;2023-10-13T19:49:21;19.69;76.24
68109;SHT30;54893;49.864;19.084;2023-10-13T19:54:25;19.54;76.58
68109;SHT30;54893;49.864;19.084;2023-10-13T19:59:26;19.50;76.71
68109;SHT30;54893;49.864;19.084;2023-10-13T20:04:28;19.56;76.47
68109;SHT30;54893;49.864;19.084;2023-10-13T20:09:29;19.49;76.46
68109;SHT30;54893;49.864;19.084;2023-10-13T20:14:29;19.51;76.09
68109;SHT30;54893;49.864;19.084;2023-10-13T20:19:32;19.40;76.37
68109;SHT30;54893;49.864;19.084;2023-10-13T20:24:32;19.41;76.02
68109;SHT30;54893;49.864;19.084;2023-10-13T20:29:33;19.45;75.58
68109;SHT30;54893;49.864;19.084;2023-10-13T20:34:33;19.63;74.09
68109;SHT30;54893;49.864;19.084;2023-10-13T20:39:34;19.85;72.63
68109;SHT30;54893;49.864;19.084;2023-10-13T20:44:34;19.97;71.94
68109;SHT30;54893;49.864;19.084;2023-10-13T20:49:37;19.69;72.47
68109;SHT30;54893;49.864;19.084;2023-10-13T20:54:38;19.69;72.68
68109;SHT30;54893;49.864;19.084;2023-10-13T20:59:41;19.93;71.04
68109;SHT30;54893;49.864;19.084;2023-10-13T21:04:43;20.08;70.34
68109;SHT30;54893;49.864;19.084;2023-10-13T21:09:44;20.25;69.23
68109;SHT30;54893;49.864;19.084;2023-10-13T21:14:47;20.26;69.05
68109;SHT30;54893;49.864;19.084;2023-10-13T21:19:48;20.34;68.96
68109;SHT30;54893;49.864;19.084;2023-10-13T21:24:49;20.28;69.21
68109;SHT30;54893;49.864;19.084;2023-10-13T21:29:50;20.31;68.21
68109;SHT30;54893;49.864;19.084;2023-10-13T21:34:50;20.21;69.12
68109;SHT30;54893;49.864;19.084;2023-10-13T21:39:51;20.39;68.22
68109;SHT30;54893;49.864;19.084;2023-10-13T21:44:52;20.44;67.71
68109;SHT30;54893;49.864;19.084;2023-10-13T21:49:55;20.53;67.52
68109;SHT30;54893;49.864;19.084;2023-10-13T21:54:58;20.31;68.14
68109;SHT30;54893;49.864;19.084;2023-10-13T21:59:58;20.39;68.01
68109;SHT30;54893;49.864;19.084;2023-10-13T22:04:59;20.18;69.22
68109;SHT30;54893;49.864;19.084;2023-10-13T22:09:59;20.15;69.32
68109;SHT30;54893;49.864;19.084;2023-10-13T22:14:59;20.14;69.29
68109;SHT30;54893;49.864;19.084;2023-10-13T22:20:03;20.20;69.12
68109;SHT30;54893;49.864;19.084;2023-10-13T22:25:07;20.13;69.46
68109;SHT30;54893;49.864;19.084;2023-10-13T22:30:15;20.24;68.94
68109;SHT30;54893;49.864;19.084;2023-10-13T22:35:19;20.22;69.03
68109;SHT30;54893;49.864;19.084;2023-10-13T22:40:21;20.25;68.86
68109;SHT30;54893;49.864;19.084;2023-10-13T22:45:22;20.47;67.05
68109;SHT30;54893;49.864;19.084;2023-10-13T22:50:24;20.47;65.94
68109;SHT30;54893;49.864;19.084;2023-10-13T22:55:25;20.42;66.70
68109;SHT30;54893;49.864;19.084;2023-10-13T23:00:26;20.56;64.47
68109;SHT30;54893;49.864;19.084;2023-10-13T23:05:49;20.61;62.88
68109;SHT30;54893;49.864;19.084;2023-10-13T23:10:52;20.61;63.06
68109;SHT30;54893;49.864;19.084;2023-10-13T23:15:52;20.96;60.05
68109;SHT30;54893;49.864;19.084;2023-10-13T23:20:54;21.23;59.24
68109;SHT30;54893;49.864;19.084;2023-10-13T23:25:54;21.23;59.69
68109;SHT30;54893;49.864;19.084;2023-10-13T23:30:55;21.18;58.12
68109;SHT30;54893;49.864;19.084;2023-10-13T23:35:57;21.36;56.90
68109;SHT30;54893;49.864;19.084;2023-10-13T23:40:57;21.36;56.10
68109;SHT30;54893;49.864;19.084;2023-10-13T23:45:58;21.46;55.11
68109;SHT30;54893;49.864;19.084;2023-10-13T23:51:01;21.19;56.60
68109;SHT30;54893;49.864;19.084;2023-10-13T23:56:06;21.33;54.65
